Time;durP1;ratioP1;P1;durP2;ratioP2;P2;SDS_P1;SDS_P2;PMS_P1;PMS_P2;Temp;Humidity;BMP_temperature;BMP_pressure;BME280_temperature;BME280_humidity;BME280_pressure;Samples;Min_cycle;Max_cycle;Signal;HPM_P1;HPM_P2
2021/05/02 00:01:16;;;;;;;1.65;1.45;;;;;;;20.48;52.68;100327.38;1801966;79;21102;-78
2021/05/02 00:03:56;;;;;;;3.17;1.37;;;;;;;20.49;52.93;100344.03;1801829;79;21253;-77
2021/05/02 00:06:24;;;;;;;4.35;1.45;;;;;;;20.56;53.15;100348.86;1801576;79;21157;-77
2021/05/02 00:08:51;;;;;;;;;;;;;;;20.60;53.38;100352.80;1814536;76;21169;-81
2021/05/02 00:11:18;;;;;;;3.42;1.70;;;;;;;20.63;53.45;100357.79;1834962;76;20288;-78
2021/05/02 00:13:45;;;;;;;12.37;3.50;;;;;;;20.63;53.73;100365.95;1858962;76;21629;-80
2021/05/02 00:16:12;;;;;;;;;;;;;;;20.64;54.12;100343.12;1783588;79;21209;-77
2021/05/02 00:18:40;;;;;;;13.40;4.65;;;;;;;20.61;54.59;100343.56;1778517;79;20676;-81
2021/05/02 00:21:09;;;;;;;13.45;5.72;;;;;;;20.58;54.86;100337.77;1811170;79;21160;-78
2021/05/02 00:23:39;;;;;;;19.02;5.72;;;;;;;20.57;55.02;100336.08;1810711;78;21673;-79
2021/05/02 00:26:07;;;;;;;18.45;6.70;;;;;;;20.54;55.03;100329.22;1810313;78;21639;-79
2021/05/02 00:28:35;;;;;;;20.43;6.33;;;;;;;20.56;55.10;100318.92;1805757;78;21171;-79
2021/05/02 00:31:06;;;;;;;16.32;5.85;;;;;;;20.53;55.15;100313.95;1804450;78;21116;-77
2021/05/02 00:33:35;;;;;;;17.07;6.12;;;;;;;20.50;55.13;100308.95;1792863;78;21142;-80
2021/05/02 00:36:04;;;;;;;20.35;6.87;;;;;;;20.50;55.28;100317.12;1788389;80;21197;-79
2021/05/02 00:38:37;;;;;;;16.90;6.40;;;;;;;20.46;55.70;100308.55;1795496;79;21137;-78
2021/05/02 00:41:09;;;;;;;20.35;7.30;;;;;;;20.44;55.57;100292.16;1821233;77;21566;-79
2021/05/02 00:43:56;;;;;;;16.85;6.58;;;;;;;20.44;55.64;100275.84;1801140;77;21174;-77
2021/05/02 00:46:31;;;;;;;22.67;6.10;;;;;;;20.43;55.81;100276.88;1801856;79;21124;-77
2021/05/02 00:49:18;;;;;;;17.42;6.35;;;;;;;20.42;55.95;100272.50;1821390;78;21119;-78
2021/05/02 00:51:54;;;;;;;16.93;6.78;;;;;;;20.41;55.97;100276.28;1801493;78;21159;-76
2021/05/02 00:54:36;;;;;;;15.50;6.33;;;;;;;20.42;56.04;100271.13;1808182;78;21557;-79
2021/05/02 00:57:08;;;;;;;17.37;6.83;;;;;;;20.42;55.95;100271.13;1781905;79;21118;-78
2021/05/02 01:00:10;;;;;;;19.73;7.30;;;;;;;20.40;55.76;100260.48;1759292;80;21122;-77
2021/05/02 01:02:38;;;;;;;15.35;5.90;;;;;;;20.37;55.76;100257.39;1777555;80;21201;-76
2021/05/02 01:05:11;;;;;;;13.18;4.87;;;;;;;20.35;55.57;100255.41;1776190;80;21161;-78
2021/05/02 01:07:41;;;;;;;9.35;5.33;;;;;;;20.30;55.53;100242.48;1771019;80;21458;-78
2021/05/02 01:10:16;;;;;;;10.20;3.92;;;;;;;20.27;55.53;100239.70;1808041;77;21588;-78
2021/05/02 01:12:57;;;;;;;9.35;3.55;;;;;;;20.22;55.47;100237.37;1792907;79;21115;-78
2021/05/02 01:15:31;;;;;;;9.25;3.67;;;;;;;20.12;55.51;100221.59;1819036;78;21130;-81
2021/05/02 01:18:02;;;;;;;6.22;3.45;;;;;;;20.03;55.65;100225.67;1802208;79;21182;-78
2021/05/02 01:20:33;;;;;;;5.10;2.60;;;;;;;20.01;55.64;100225.05;1802084;79;21562;-79
2021/05/02 01:23:08;;;;;;;6.47;2.98;;;;;;;20.01;55.62;100230.48;1802063;79;21633;-81
2021/05/02 01:25:36;;;;;;;7.05;2.62;;;;;;;19.99;55.70;100234.80;1802727;79;21170;-77
2021/05/02 01:28:05;;;;;;;5.40;2.77;;;;;;;20.05;55.59;100234.41;1788791;79;21577;-79
2021/05/02 01:30:33;;;;;;;5.70;2.90;;;;;;;20.06;55.53;100223.84;1801368;79;21178;-79
2021/05/02 01:33:00;;;;;;;3.72;2.52;;;;;;;20.04;55.56;100214.27;1801528;79;21673;-79
2021/05/02 01:35:28;;;;;;;4.47;2.47;;;;;;;19.96;55.73;100209.41;1801413;79;21151;-80
2021/05/02 01:37:55;;;;;;;7.58;3.22;;;;;;;19.93;55.95;100203.05;1801541;79;21201;-78
2021/05/02 01:40:22;;;;;;;7.97;3.60;;;;;;;19.91;56.02;100197.03;1788548;79;21142;-79
2021/05/02 01:42:50;;;;;;;6.60;3.52;;;;;;;19.90;56.06;100197.27;1801833;79;21178;-79
2021/05/02 01:45:17;;;;;;;;;;;;;;;19.92;56.01;100207.38;1805211;79;21654;-76
2021/05/02 01:47:48;;;;;;;3.72;2.90;;;;;;;19.88;55.90;100199.36;1767545;80;20213;-76
2021/05/02 01:50:15;;;;;;;3.00;1.67;;;;;;;19.83;55.91;100189.70;1802801;79;21133;-76
2021/05/02 01:52:52;;;;;;;2.77;1.70;;;;;;;19.78;56.04;100186.83;1802901;79;21122;-76
2021/05/02 01:55:21;;;;;;;3.02;1.80;;;;;;;19.76;56.00;100192.50;1802069;79;21146;-78
2021/05/02 01:57:50;;;;;;;4.17;2.15;;;;;;;19.73;56.12;100204.63;1778616;79;21082;-79
2021/05/02 02:00:29;;;;;;;2.20;2.00;;;;;;;19.71;56.13;100208.12;1773752;79;21122;-75
2021/05/02 02:03:00;;;;;;;4.12;2.40;;;;;;;19.73;56.19;100206.52;1790466;78;21198;-77
2021/05/02 02:05:27;;;;;;;4.55;2.25;;;;;;;19.70;56.18;100199.64;1802363;79;21653;-76
2021/05/02 02:07:56;;;;;;;3.15;1.72;;;;;;;19.71;56.24;100204.54;1743169;80;21095;-79
2021/05/02 02:10:25;;;;;;;3.98;1.95;;;;;;;19.71;56.27;100196.39;1800750;79;21145;-79
2021/05/02 02:12:54;;;;;;;3.60;2.40;;;;;;;19.72;56.27;100200.79;1819518;78;21171;-78
2021/05/02 02:15:29;;;;;;;3.65;2.58;;;;;;;19.74;56.28;100202.21;1807979;79;21117;-77
2021/05/02 02:17:58;;;;;;;3.67;2.85;;;;;;;19.75;56.22;100199.79;1808058;78;21505;-76
2021/05/02 02:20:27;;;;;;;4.87;3.70;;;;;;;19.75;56.21;100192.17;1804901;78;21173;-78
2021/05/02 02:22:56;;;;;;;6.55;2.72;;;;;;;19.75;56.28;100187.56;1801726;79;21168;-76
2021/05/02 02:25:28;;;;;;;4.22;2.58;;;;;;;19.73;56.43;100191.05;1801600;79;21169;-77
2021/05/02 02:27:56;;;;;;;3.42;2.37;;;;;;;19.71;56.49;100187.73;1801848;79;21174;-77
2021/05/02 02:30:25;;;;;;;3.02;2.72;;;;;;;19.71;56.54;100192.31;1777345;79;21192;-75
2021/05/02 02:32:53;;;;;;;3.55;2.70;;;;;;;19.73;56.59;100186.97;1801729;79;21197;-77
2021/05/02 02:35:21;;;;;;;4.40;2.92;;;;;;;19.75;56.53;100188.92;1779196;79;21244;-76
2021/05/02 02:37:50;;;;;;;5.80;3.05;;;;;;;19.75;56.61;100184.84;1803431;79;21098;-79
2021/05/02 02:40:18;;;;;;;6.80;4.65;;;;;;;19.74;56.63;100176.39;1805690;78;21118;-80
2021/05/02 02:42:46;;;;;;;6.40;3.90;;;;;;;19.76;56.74;100169.40;1835947;77;21110;-77
2021/05/02 02:45:14;;;;;;;5.65;3.50;;;;;;;19.77;56.86;100176.48;1835936;77;21619;-80
2021/05/02 02:47:50;;;;;;;6.08;3.92;;;;;;;19.71;56.91;100167.36;1835973;78;21145;-78
2021/05/02 02:50:19;;;;;;;4.80;2.83;;;;;;;19.66;57.05;100163.09;1835923;77;21051;-76
2021/05/02 02:52:51;;;;;;;3.80;3.10;;;;;;;19.62;57.15;100160.55;1830205;78;21621;-77
2021/05/02 02:55:21;;;;;;;4.30;3.25;;;;;;;19.59;57.29;100157.41;1785079;80;21518;-76
2021/05/02 02:57:53;;;;;;;5.00;3.20;;;;;;;19.53;57.52;100155.08;1817085;78;21688;-76
2021/05/02 03:00:23;;;;;;;4.00;3.33;;;;;;;19.50;57.74;100150.91;1817438;78;21685;-80
2021/05/02 03:03:06;;;;;;;3.45;3.15;;;;;;;19.50;57.92;100149.55;1817320;78;21205;-79
2021/05/02 03:05:35;;;;;;;6.97;5.60;;;;;;;19.49;57.94;100149.78;1794841;78;21189;-78
2021/05/02 03:08:04;;;;;;;4.45;3.35;;;;;;;19.47;58.11;100145.91;1801770;79;21105;-76
2021/05/02 03:10:31;;;;;;;4.00;3.37;;;;;;;19.44;58.18;100148.23;1807845;79;21202;-76
2021/05/02 03:12:59;;;;;;;5.80;3.90;;;;;;;19.41;58.34;100152.25;1800823;79;21174;-77
2021/05/02 03:15:28;;;;;;;4.50;3.45;;;;;;;19.39;58.36;100153.52;1827739;78;21177;-77
2021/05/02 03:18:06;;;;;;;5.78;3.90;;;;;;;19.48;58.19;100156.25;1827670;78;21180;-77
2021/05/02 03:20:37;;;;;;;24.57;16.42;;;;;;;19.66;57.87;100169.89;1827729;78;21212;-79
2021/05/02 03:23:15;;;;;;;10.55;7.12;;;;;;;19.68;57.78;100167.80;1826785;78;21787;-76
2021/05/02 03:25:43;;;;;;;;;;;;;;;19.70;57.79;100171.63;1830778;78;21192;-79
2021/05/02 03:28:21;;;;;;;6.17;4.12;;;;;;;19.72;57.69;100173.09;1827765;78;20560;-80
2021/05/02 03:30:48;;;;;;;6.22;4.03;;;;;;;19.66;57.77;100171.25;1821243;78;21193;-76
2021/05/02 03:33:16;;;;;;;5.47;4.65;;;;;;;19.73;57.73;100178.81;1801829;78;21177;-78
2021/05/02 03:35:46;;;;;;;6.50;5.35;;;;;;;19.72;57.78;100185.31;1793098;78;21198;-77
2021/05/02 03:38:50;;;;;;;6.00;4.90;;;;;;;19.74;57.83;100176.92;1742642;79;21187;-77
2021/05/02 03:41:18;;;;;;;8.13;4.92;;;;;;;19.82;57.68;100181.25;1796443;79;21179;-77
2021/05/02 03:43:46;;;;;;;14.10;8.83;;;;;;;19.87;57.47;100174.60;1756560;80;21214;-77
2021/05/02 03:46:26;;;;;;;8.45;5.97;;;;;;;19.89;57.62;100176.55;1758363;79;21195;-77
2021/05/02 03:48:58;;;;;;;5.17;4.33;;;;;;;19.90;57.54;100179.06;1799607;79;21197;-77
2021/05/02 03:51:26;;;;;;;6.12;4.62;;;;;;;19.90;57.56;100173.63;1780909;80;21185;-77
2021/05/02 03:53:54;;;;;;;6.60;5.12;;;;;;;19.88;57.57;100172.18;1781733;80;21201;-77
2021/05/02 03:56:43;;;;;;;11.30;4.30;;;;;;;19.86;57.64;100180.56;1782591;80;21173;-77
2021/05/02 03:59:21;;;;;;;10.75;8.75;;;;;;;19.84;57.65;100183.20;1783248;80;21160;-77
2021/05/02 04:01:54;;;;;;;8.93;6.17;;;;;;;19.82;57.79;100186.15;1782044;80;21770;-77
2021/05/02 04:04:25;;;;;;;6.53;5.50;;;;;;;19.88;57.92;100191.20;1782297;80;21137;-78
2021/05/02 04:07:01;;;;;;;9.20;5.20;;;;;;;19.95;57.70;100193.34;1782059;80;21193;-77
2021/05/02 04:09:29;;;;;;;7.62;6.35;;;;;;;19.85;57.88;100187.06;1782578;80;21157;-79
2021/05/02 04:11:56;;;;;;;7.15;5.87;;;;;;;19.83;57.97;100191.88;1807183;79;21122;-76
2021/05/02 04:14:24;;;;;;;25.48;15.35;;;;;;;19.81;57.96;100188.57;1815072;79;21176;-79
2021/05/02 04:17:04;;;;;;;10.55;8.50;;;;;;;19.79;58.09;100184.41;1814741;78;21633;-79
2021/05/02 04:19:34;;;;;;;9.43;6.87;;;;;;;19.78;58.25;100187.66;1814630;79;21165;-80
2021/05/02 04:22:02;;;;;;;7.92;5.78;;;;;;;19.77;58.28;100194.16;1815350;78;21217;-81
2021/05/02 04:24:29;;;;;;;10.43;7.40;;;;;;;19.75;58.40;100182.66;1812166;78;21177;-80
2021/05/02 04:26:57;;;;;;;9.08;7.15;;;;;;;19.72;58.26;100185.31;1828571;78;21169;-79
2021/05/02 04:29:26;;;;;;;9.33;7.30;;;;;;;19.70;58.45;100175.71;1830251;77;21145;-81
2021/05/02 04:31:54;;;;;;;7.95;6.50;;;;;;;19.69;58.46;100179.49;1810222;77;21161;-79
2021/05/02 04:34:22;;;;;;;12.00;6.65;;;;;;;19.74;58.53;100176.39;1750759;79;21161;-77
2021/05/02 04:36:51;;;;;;;12.20;7.22;;;;;;;19.82;58.51;100175.81;1789571;79;21162;-78
2021/05/02 04:39:20;;;;;;;9.50;7.40;;;;;;;19.91;58.44;100174.45;1789439;78;21158;-80
2021/05/02 04:41:48;;;;;;;11.12;7.90;;;;;;;20.04;58.02;100164.79;1819963;78;21920;-77
2021/05/02 04:44:18;;;;;;;10.95;6.17;;;;;;;20.08;57.78;100161.92;1832967;78;21601;-78
2021/05/02 04:46:45;;;;;;;9.95;5.90;;;;;;;20.13;57.82;100166.14;1807791;78;21177;-77
2021/05/02 04:49:13;;;;;;;8.78;6.87;;;;;;;20.16;57.65;100171.63;1833461;77;21173;-79
2021/05/02 04:51:41;;;;;;;10.82;7.50;;;;;;;20.17;57.71;100171.43;1833541;78;21182;-77
2021/05/02 04:54:10;;;;;;;11.18;7.12;;;;;;;20.20;57.72;100170.95;1833022;77;21346;-80
2021/05/02 04:56:38;;;;;;;8.78;6.78;;;;;;;20.17;57.75;100168.71;1808857;78;21110;-77
2021/05/02 04:59:08;;;;;;;9.80;7.08;;;;;;;20.21;57.70;100167.20;1791646;79;21150;-78
2021/05/02 05:01:36;;;;;;;14.93;8.60;;;;;;;20.31;57.40;100169.91;1799260;79;21170;-78
2021/05/02 05:04:06;;;;;;;11.55;8.35;;;;;;;20.34;57.40;100162.09;1793589;79;21643;-80
2021/05/02 05:06:34;;;;;;;16.57;8.23;;;;;;;20.40;57.36;100159.83;1816845;79;21177;-80
2021/05/02 05:09:03;;;;;;;12.18;9.10;;;;;;;20.49;57.33;100159.02;1790553;79;21192;-79
2021/05/02 05:11:30;;;;;;;14.63;8.88;;;;;;;20.61;57.32;100165.84;1805677;78;21168;-79
2021/05/02 05:13:58;;;;;;;14.60;10.63;;;;;;;20.72;57.07;100156.91;1800973;79;21160;-78
2021/05/02 05:16:25;;;;;;;12.43;9.65;;;;;;;20.83;56.85;100151.19;1800597;79;21172;-79
2021/05/02 05:18:54;;;;;;;14.60;10.13;;;;;;;20.91;56.75;100150.33;1776731;79;21150;-78
2021/05/02 05:21:21;;;;;;;10.45;8.23;;;;;;;20.99;56.66;100150.52;1776391;79;21184;-77
2021/05/02 05:23:49;;;;;;;13.48;10.65;;;;;;;21.10;56.23;100148.34;1800169;79;21594;-77
2021/05/02 05:26:16;;;;;;;13.90;11.25;;;;;;;21.16;56.27;100146.03;1800774;79;21234;-78
2021/05/02 05:28:44;;;;;;;15.32;11.65;;;;;;;21.27;56.13;100142.50;1776585;79;21190;-79
2021/05/02 05:31:11;;;;;;;17.60;10.43;;;;;;;21.38;55.90;100148.21;1819430;78;21237;-78
2021/05/02 05:33:38;;;;;;;16.97;11.28;;;;;;;21.46;55.76;100141.87;1798024;79;21474;-78
2021/05/02 05:36:06;;;;;;;16.20;11.85;;;;;;;21.58;55.29;100151.42;1782598;78;21410;-79
2021/05/02 05:38:33;;;;;;;16.23;12.47;;;;;;;21.59;54.76;100154.98;1799957;79;21198;-78
2021/05/02 05:41:01;;;;;;;18.32;12.90;;;;;;;21.59;54.67;100156.34;1797154;77;21185;-79
2021/05/02 05:43:29;;;;;;;18.80;12.28;;;;;;;21.59;54.54;100150.34;1809347;79;21178;-78
2021/05/02 05:45:56;;;;;;;15.10;10.75;;;;;;;21.61;54.68;100157.73;1742681;80;21182;-78
2021/05/02 05:48:24;;;;;;;16.25;11.78;;;;;;;21.62;54.62;100152.61;1800986;79;21666;-80
2021/05/02 05:50:51;;;;;;;16.67;12.68;;;;;;;21.65;54.57;100150.75;1774765;79;21703;-79
2021/05/02 05:53:20;;;;;;;19.35;13.05;;;;;;;21.72;54.79;100146.55;1802614;79;21148;-77
2021/05/02 05:55:47;;;;;;;16.52;12.45;;;;;;;21.82;54.88;100154.12;1836002;78;21146;-80
2021/05/02 05:58:14;;;;;;;17.12;11.43;;;;;;;21.93;54.64;100151.89;1799009;79;21640;-79
2021/05/02 06:00:45;;;;;;;14.83;11.43;;;;;;;22.07;54.28;100150.55;1797866;79;21189;-78
2021/05/02 06:03:14;;;;;;;14.83;11.48;;;;;;;22.16;53.85;100146.41;1780496;79;21450;-80
2021/05/02 06:05:43;;;;;;;11.75;10.08;;;;;;;22.22;53.62;100148.19;1811786;78;21205;-77
2021/05/02 06:08:10;;;;;;;17.65;12.33;;;;;;;22.26;52.64;100145.81;1761699;79;21241;-78
2021/05/02 06:10:37;;;;;;;13.08;9.78;;;;;;;22.26;52.93;100135.72;1785291;79;21668;-82
2021/05/02 06:13:04;;;;;;;;;;;;;;;22.31;52.77;100136.36;1754664;79;21237;-79
2021/05/02 06:15:32;;;;;;;17.10;11.85;;;;;;;22.34;52.36;100134.48;1800164;79;20589;-78
2021/05/02 06:17:59;;;;;;;20.25;11.28;;;;;;;22.36;52.05;100142.45;1799599;79;21226;-80
2021/05/02 06:20:27;;;;;;;16.67;11.40;;;;;;;22.39;51.80;100144.16;1800543;79;21193;-84
2021/05/02 06:22:54;;;;;;;16.10;11.20;;;;;;;22.44;51.54;100151.61;1801121;79;21177;-80
2021/05/02 06:25:22;;;;;;;12.70;8.95;;;;;;;22.50;51.18;100151.99;1779024;79;21191;-78
2021/05/02 06:27:50;;;;;;;10.78;8.50;;;;;;;22.53;50.60;100155.07;1777807;79;21174;-80
2021/05/02 06:30:21;;;;;;;12.55;8.60;;;;;;;22.56;50.62;100163.83;1785085;79;21585;-77
2021/05/02 06:32:50;;;;;;;11.95;9.48;;;;;;;22.59;50.22;100153.80;1781199;80;21213;-79
2021/05/02 06:35:20;;;;;;;17.52;10.05;;;;;;;22.64;50.25;100157.44;1785047;77;21162;-79
2021/05/02 06:37:47;;;;;;;15.78;9.90;;;;;;;22.66;50.28;100153.91;1832263;77;21173;-81
2021/05/02 06:40:14;;;;;;;;;;;;;;;22.65;49.57;100153.63;1832710;78;21471;-78
2021/05/02 06:42:41;;;;;;;13.65;8.38;;;;;;;22.61;48.97;100147.55;1783159;80;20304;-79
2021/05/02 06:45:10;;;;;;;14.13;9.95;;;;;;;22.60;48.83;100142.63;1800681;79;22282;-78
2021/05/02 06:47:39;;;;;;;13.50;9.03;;;;;;;22.58;49.04;100139.32;1802756;78;21162;-81
2021/05/02 06:50:09;;;;;;;9.90;7.30;;;;;;;22.59;48.90;100155.98;1779160;79;21177;-79
2021/05/02 06:52:38;;;;;;;15.30;9.55;;;;;;;22.60;48.96;100150.81;1785997;80;21483;-77
2021/05/02 06:55:07;;;;;;;14.60;9.18;;;;;;;22.61;49.38;100147.00;1794903;78;21604;-78
2021/05/02 06:57:35;;;;;;;18.60;10.25;;;;;;;22.67;49.22;100147.41;1873421;76;21185;-77
2021/05/02 07:00:04;;;;;;;14.85;10.18;;;;;;;22.70;49.15;100146.07;1871026;76;21161;-77
2021/05/02 07:02:32;;;;;;;12.40;9.93;;;;;;;22.72;49.10;100153.50;1857270;76;21165;-76
2021/05/02 07:04:59;;;;;;;15.88;9.93;;;;;;;22.75;48.83;100144.25;1827762;77;21163;-79
2021/05/02 07:07:28;;;;;;;14.75;9.85;;;;;;;22.79;49.22;100143.23;1846472;77;21170;-76
2021/05/02 07:09:56;;;;;;;12.53;8.80;;;;;;;22.84;49.35;100153.41;1823901;77;21410;-79
2021/05/02 07:12:24;;;;;;;12.15;9.10;;;;;;;22.94;49.24;100149.55;1837650;76;21164;-80
2021/05/02 07:14:53;;;;;;;12.35;8.18;;;;;;;22.99;49.29;100148.27;1800184;79;21204;-80
2021/05/02 07:17:22;;;;;;;13.13;8.93;;;;;;;23.01;49.29;100151.02;1770443;79;21644;-81
2021/05/02 07:19:51;;;;;;;15.38;8.98;;;;;;;23.10;48.85;100145.16;1810530;79;21212;-79
2021/05/02 07:22:19;;;;;;;14.60;8.40;;;;;;;23.20;48.59;100145.31;1810851;79;21046;-80
2021/05/02 07:24:50;;;;;;;12.90;8.45;;;;;;;23.29;48.30;100153.38;1783340;79;21670;-80
2021/05/02 07:27:19;;;;;;;12.15;8.80;;;;;;;23.32;48.02;100152.06;1800381;79;21182;-82
2021/05/02 07:29:46;;;;;;;15.68;8.65;;;;;;;23.34;47.86;100143.89;1812315;79;21348;-77
2021/05/02 07:32:17;;;;;;;14.05;9.03;;;;;;;23.36;47.75;100146.39;1811477;79;21185;-80
2021/05/02 07:34:47;;;;;;;15.13;8.80;;;;;;;23.38;47.94;100140.12;1812543;79;21201;-82
2021/05/02 07:37:14;;;;;;;;;;;;;;;23.41;48.08;100136.90;1815434;79;21170;-78
2021/05/02 07:39:41;;;;;;;13.38;9.20;;;;;;;23.45;47.77;100143.52;1787697;78;20475;-77
2021/05/02 07:42:08;;;;;;;16.42;7.90;;;;;;;23.49;48.05;100137.84;1785991;78;21720;-76
2021/05/02 07:44:35;;;;;;;11.80;8.18;;;;;;;23.54;47.89;100139.28;1781080;79;21225;-79
2021/05/02 07:47:05;;;;;;;15.43;7.75;;;;;;;23.58;47.89;100134.97;1780624;79;21189;-78
2021/05/02 07:49:33;;;;;;;14.18;7.72;;;;;;;23.64;47.72;100139.45;1780505;79;21656;-80
2021/05/02 07:52:01;;;;;;;14.70;9.10;;;;;;;23.65;47.50;100135.63;1767200;80;21443;-77
2021/05/02 07:54:29;;;;;;;11.65;8.53;;;;;;;23.67;47.48;100132.13;1780746;80;21186;-78
2021/05/02 07:56:56;;;;;;;13.53;9.20;;;;;;;23.68;47.24;100124.74;1767560;80;21214;-80
2021/05/02 07:59:24;;;;;;;14.13;8.90;;;;;;;23.70;47.19;100145.27;1780653;79;21237;-80
2021/05/02 08:01:51;;;;;;;14.05;8.28;;;;;;;23.66;46.43;100136.45;1780882;80;21174;-81
2021/05/02 08:04:18;;;;;;;15.05;8.70;;;;;;;23.61;46.17;100124.87;1767781;80;21181;-77
2021/05/02 08:06:47;;;;;;;16.65;9.70;;;;;;;23.59;46.03;100130.33;1781623;80;21190;-78
2021/05/02 08:09:14;;;;;;;;;;;;;;;23.58;46.53;100125.95;1784409;79;21194;-77
2021/05/02 08:11:43;;;;;;;25.05;11.33;;;;;;;23.57;46.64;100122.36;1800535;79;20259;-78
2021/05/02 08:14:12;;;;;;;21.97;11.15;;;;;;;23.55;46.70;100126.72;1785488;79;21209;-78
2021/05/02 08:16:41;;;;;;;18.60;11.08;;;;;;;23.54;47.16;100122.88;1781506;80;21102;-78
2021/05/02 08:19:08;;;;;;;17.30;10.63;;;;;;;23.52;47.33;100117.64;1781776;79;21161;-77
2021/05/02 08:21:35;;;;;;;14.28;8.48;;;;;;;23.48;47.43;100109.69;1781536;80;21197;-78
2021/05/02 08:24:03;;;;;;;;;;;;;;;23.46;47.42;100105.53;1784280;79;21225;-83
2021/05/02 08:26:30;;;;;;;18.98;8.83;;;;;;;23.47;47.64;100107.19;1795219;79;20282;-79
2021/05/02 08:28:58;;;;;;;15.20;8.85;;;;;;;23.46;47.34;100114.56;1759481;80;21193;-79
2021/05/02 08:31:27;;;;;;;14.83;8.78;;;;;;;23.44;47.18;100114.00;1781538;80;21182;-79
2021/05/02 08:33:54;;;;;;;18.57;9.90;;;;;;;23.44;46.98;100111.27;1781907;80;21193;-78
2021/05/02 08:36:22;;;;;;;20.55;8.13;;;;;;;23.45;47.08;100110.72;1786175;79;21220;-79
2021/05/02 08:38:49;;;;;;;16.65;9.30;;;;;;;23.46;47.06;100110.46;1808820;79;21622;-79
2021/05/02 08:41:18;;;;;;;16.60;8.95;;;;;;;23.47;46.85;100094.88;1801431;79;21123;-80
2021/05/02 08:43:52;;;;;;;;;;;;;;;23.47;46.92;100105.81;1815328;78;21446;-79
2021/05/02 08:46:19;;;;;;;19.55;9.50;;;;;;;23.46;47.04;100098.16;1810667;78;20371;-79
2021/05/02 08:48:47;;;;;;;20.17;10.82;;;;;;;23.46;47.09;100096.80;1798558;79;21396;-77
2021/05/02 08:51:26;;;;;;;17.52;10.60;;;;;;;23.47;47.14;100095.70;1817862;77;21413;-77
2021/05/02 08:53:56;;;;;;;16.80;9.85;;;;;;;23.46;47.46;100099.53;1816647;77;21177;-80
2021/05/02 08:56:29;;;;;;;22.22;10.43;;;;;;;23.47;47.49;100101.72;1775420;78;21606;-79
2021/05/02 08:58:56;;;;;;;16.37;9.78;;;;;;;23.48;47.79;100106.09;1800318;79;21193;-79
2021/05/02 09:01:28;;;;;;;18.45;10.93;;;;;;;23.48;47.88;100106.09;1775220;79;21217;-78
2021/05/02 09:04:03;;;;;;;24.57;10.68;;;;;;;23.49;48.36;100114.61;1792542;79;21217;-81
2021/05/02 09:06:32;;;;;;;17.95;11.50;;;;;;;23.75;48.23;100109.81;1785159;78;21287;-78
2021/05/02 09:09:08;;;;;;;22.30;10.03;;;;;;;23.78;48.13;100109.83;1804265;78;21189;-78
2021/05/02 09:11:39;;;;;;;20.25;10.05;;;;;;;23.78;48.42;100108.47;1810643;77;21193;-79
2021/05/02 09:14:23;;;;;;;20.60;11.30;;;;;;;23.78;48.29;100111.20;1751380;78;39364;-77
2021/05/02 09:16:57;;;;;;;26.35;14.13;;;;;;;23.77;48.43;100112.28;1800681;79;21134;-77
2021/05/02 09:19:32;;;;;;;;;;;;;;;23.75;48.50;100113.92;1801513;78;21198;-77
2021/05/02 09:22:12;;;;;;;22.22;11.53;;;;;;;23.78;48.62;100104.36;1795376;79;20446;-76
2021/05/02 09:24:39;;;;;;;21.60;11.38;;;;;;;23.81;48.76;100111.25;1785736;78;21170;-76
2021/05/02 09:27:15;;;;;;;25.88;12.30;;;;;;;23.81;48.70;100104.41;1804082;78;21189;-78
2021/05/02 09:29:45;;;;;;;20.50;9.83;;;;;;;23.84;48.82;100109.34;1813781;78;21170;-78
2021/05/02 09:32:14;;;;;;;14.50;8.65;;;;;;;23.83;48.46;100096.77;1800584;78;21154;-78
2021/05/02 09:34:53;;;;;;;18.02;10.48;;;;;;;23.86;48.19;100107.20;1834247;78;21407;-79
2021/05/02 09:37:21;;;;;;;24.80;11.90;;;;;;;23.84;48.19;100111.54;1791835;78;21171;-78
2021/05/02 09:39:50;;;;;;;20.12;9.68;;;;;;;23.80;48.12;100124.09;1773995;79;21228;-80
2021/05/02 09:42:22;;;;;;;16.17;10.43;;;;;;;23.73;47.64;100122.08;1829796;77;21210;-81
2021/05/02 09:44:56;;;;;;;23.70;11.90;;;;;;;23.65;47.71;100118.41;1800909;78;21222;-81
2021/05/02 09:47:38;;;;;;;17.60;11.65;;;;;;;23.58;47.91;100118.56;1804533;78;21185;-81
2021/05/02 09:50:19;;;;;;;18.62;10.43;;;;;;;23.51;48.21;100115.17;1800753;79;21226;-79
2021/05/02 09:53:05;;;;;;;17.92;10.48;;;;;;;23.47;48.39;100118.12;1797635;79;21170;-78
2021/05/02 09:55:42;;;;;;;21.60;11.60;;;;;;;23.45;49.20;100125.75;1781132;80;21179;-81
2021/05/02 09:58:19;;;;;;;23.67;12.78;;;;;;;23.41;49.43;100124.06;1796466;78;21483;-79
2021/05/02 10:00:56;;;;;;;22.15;13.93;;;;;;;23.38;49.62;100123.19;1805141;79;21201;-80
2021/05/02 10:03:25;;;;;;;22.75;13.78;;;;;;;23.38;49.62;100125.09;1818801;78;21741;-79
2021/05/02 10:06:07;;;;;;;23.45;12.45;;;;;;;23.37;50.00;100124.81;1808977;78;21176;-80
2021/05/02 10:08:35;;;;;;;28.00;13.58;;;;;;;23.28;50.34;100119.77;1782126;79;21170;-78
2021/05/02 10:11:09;;;;;;;21.75;13.35;;;;;;;23.23;50.57;100127.06;1798559;79;21235;-79
2021/05/02 10:13:39;;;;;;;25.70;13.65;;;;;;;23.18;50.75;100126.98;1781522;79;21124;-82
2021/05/02 10:16:07;;;;;;;29.77;15.48;;;;;;;23.08;50.73;100124.92;1796926;79;21125;-82
2021/05/02 10:18:38;;;;;;;25.20;13.80;;;;;;;23.02;51.00;100124.53;1783469;79;21681;-79
2021/05/02 10:21:07;;;;;;;19.25;12.73;;;;;;;22.97;51.53;100121.72;1777944;80;21205;-83
2021/05/02 10:23:38;;;;;;;19.23;10.65;;;;;;;22.97;51.75;100121.72;1750973;80;21600;-80
2021/05/02 10:26:06;;;;;;;26.00;13.18;;;;;;;22.98;51.69;100123.36;1811592;77;21142;-82
2021/05/02 10:28:35;;;;;;;22.75;11.43;;;;;;;22.95;51.27;100121.16;1805386;78;21205;-79
2021/05/02 10:31:05;;;;;;;17.37;11.48;;;;;;;22.88;50.69;100119.91;1788999;79;21241;-80
2021/05/02 10:33:38;;;;;;;19.55;10.48;;;;;;;22.78;50.83;100127.38;1800915;79;21206;-78
2021/05/02 10:36:21;;;;;;;14.43;9.08;;;;;;;22.70;50.79;100118.77;1819622;77;21213;-77
2021/05/02 10:38:57;;;;;;;18.82;9.45;;;;;;;22.58;50.38;100123.48;1773315;79;21230;-78
2021/05/02 10:41:38;;;;;;;17.67;9.58;;;;;;;22.53;50.82;100122.31;1807879;78;21182;-79
2021/05/02 10:44:14;;;;;;;16.97;9.60;;;;;;;22.50;50.71;100117.88;1782660;79;21214;-77
2021/05/02 10:46:57;;;;;;;15.83;10.25;;;;;;;22.48;50.59;100124.95;1783888;79;21216;-76
2021/05/02 10:49:30;;;;;;;13.38;8.95;;;;;;;22.43;50.52;100124.83;1786164;79;21626;-77
2021/05/02 10:52:29;;;;;;;11.70;6.83;;;;;;;22.41;50.87;100131.63;1789364;78;21843;-76
2021/05/02 10:55:13;;;;;;;16.93;9.25;;;;;;;22.35;50.34;100127.15;1794842;78;21150;-80
2021/05/02 10:57:41;;;;;;;15.90;10.60;;;;;;;22.27;51.06;100121.54;1781970;79;21217;-80
2021/05/02 11:00:09;;;;;;;;;;;;;;;22.26;51.17;100124.80;1775895;79;21165;-78
2021/05/02 11:02:44;;;;;;;11.22;7.78;;;;;;;22.25;51.19;100116.84;1785173;79;20677;-79
2021/05/02 11:05:14;;;;;;;11.95;6.87;;;;;;;22.20;50.77;100109.39;1788760;78;21141;-79
2021/05/02 11:07:44;;;;;;;12.30;8.08;;;;;;;22.18;51.35;100114.81;1776318;79;21748;-79
2021/05/02 11:10:17;;;;;;;14.20;8.88;;;;;;;22.22;51.42;100111.36;1781667;79;21632;-80
2021/05/02 11:12:46;;;;;;;14.40;8.33;;;;;;;22.25;51.50;100116.30;1781024;79;21166;-78
2021/05/02 11:15:32;;;;;;;16.02;9.88;;;;;;;22.25;51.84;100116.30;1793749;79;21722;-77
2021/05/02 11:18:02;;;;;;;28.05;12.85;;;;;;;22.29;52.24;100114.75;1806086;78;21198;-79
2021/05/02 11:20:48;;;;;;;12.03;7.20;;;;;;;22.37;52.15;100113.54;1803347;78;21186;-78
2021/05/02 11:23:18;;;;;;;17.92;10.48;;;;;;;22.38;52.40;100112.46;1803856;78;21435;-80
2021/05/02 11:25:57;;;;;;;18.67;12.80;;;;;;;22.33;52.52;100108.27;1801411;79;21681;-78
2021/05/02 11:28:44;;;;;;;12.40;10.10;;;;;;;22.34;52.80;100106.37;1793566;79;21174;-78
2021/05/02 11:31:05;;;;;;;15.20;9.83;;;;;;;22.29;52.76;100105.20;1814015;78;21201;-79
2021/05/02 11:33:33;;;;;;;14.78;9.95;;;;;;;22.21;52.34;100101.52;1823070;78;21687;-78
2021/05/02 11:36:04;;;;;;;11.78;9.60;;;;;;;22.13;52.77;100096.98;1788957;78;21596;-78